sensor_id;sensor_type;location;lat;lon;timestamp;temperature;humidity
9762;DHT22;4920;49.594;11.022;2022-10-16T00:01:47;15.50;1.00
9762;DHT22;4920;49.594;11.022;2022-10-16T00:04:17;15.50;1.00
9762;DHT22;4920;49.594;11.022;2022-10-16T00:06:46;15.50;1.00
9762;DHT22;4920;49.594;11.022;2022-10-16T00:09:15;15.50;1.00
9762;DHT22;4920;49.594;11.022;2022-10-16T00:11:44;15.60;1.00
9762;DHT22;4920;49.594;11.022;2022-10-16T00:14:15;15.60;1.00
9762;DHT22;4920;49.594;11.022;2022-10-16T00:16:43;15.60;1.00
9762;DHT22;4920;49.594;11.022;2022-10-16T00:19:12;15.60;1.00
9762;DHT22;4920;49.594;11.022;2022-10-16T00:21:42;15.60;1.00
9762;DHT22;4920;49.594;11.022;2022-10-16T00:24:11;15.60;1.00
9762;DHT22;4920;49.594;11.022;2022-10-16T00:26:40;15.60;1.00
9762;DHT22;4920;49.594;11.022;2022-10-16T00:29:09;15.60;1.00
9762;DHT22;4920;49.594;11.022;2022-10-16T00:31:37;15.60;1.00
9762;DHT22;4920;49.594;11.022;2022-10-16T00:34:06;15.50;1.00
9762;DHT22;4920;49.594;11.022;2022-10-16T00:36:35;15.60;1.00
9762;DHT22;4920;49.594;11.022;2022-10-16T00:39:05;15.50;1.00
9762;DHT22;4920;49.594;11.022;2022-10-16T00:41:34;15.50;1.00
9762;DHT22;4920;49.594;11.022;2022-10-16T00:44:04;15.50;1.00
9762;DHT22;4920;49.594;11.022;2022-10-16T00:46:52;15.50;1.00
9762;DHT22;4920;49.594;11.022;2022-10-16T00:49:21;15.50;1.00
9762;DHT22;4920;49.594;11.022;2022-10-16T00:51:52;15.50;1.00
9762;DHT22;4920;49.594;11.022;2022-10-16T00:54:25;15.40;1.00
9762;DHT22;4920;49.594;11.022;2022-10-16T00:56:55;15.50;1.00
9762;DHT22;4920;49.594;11.022;2022-10-16T00:59:27;15.40;1.00
9762;DHT22;4920;49.594;11.022;2022-10-16T01:01:57;15.40;1.00
9762;DHT22;4920;49.594;11.022;2022-10-16T01:04:29;15.40;1.00
9762;DHT22;4920;49.594;11.022;2022-10-16T01:07:09;15.40;1.00
9762;DHT22;4920;49.594;11.022;2022-10-16T01:09:50;15.40;1.00
9762;DHT22;4920;49.594;11.022;2022-10-16T01:12:26;15.50;1.00
9762;DHT22;4920;49.594;11.022;2022-10-16T01:15:08;15.50;1.00
9762;DHT22;4920;49.594;11.022;2022-10-16T01:17:43;15.50;1.00
9762;DHT22;4920;49.594;11.022;2022-10-16T01:20:20;15.50;1.00
9762;DHT22;4920;49.594;11.022;2022-10-16T01:23:04;15.50;1.00
9762;DHT22;4920;49.594;11.022;2022-10-16T01:25:59;15.50;1.00
9762;DHT22;4920;49.594;11.022;2022-10-16T01:28:39;15.60;1.00
9762;DHT22;4920;49.594;11.022;2022-10-16T01:31:11;15.60;1.00
9762;DHT22;4920;49.594;11.022;2022-10-16T01:33:45;15.60;1.00
9762;DHT22;4920;49.594;11.022;2022-10-16T01:36:16;15.60;1.00
9762;DHT22;4920;49.594;11.022;2022-10-16T01:38:48;15.60;1.00
9762;DHT22;4920;49.594;11.022;2022-10-16T01:41:21;15.60;1.00
9762;DHT22;4920;49.594;11.022;2022-10-16T01:43:57;15.60;1.00
9762;DHT22;4920;49.594;11.022;2022-10-16T01:46:30;15.60;1.00
9762;DHT22;4920;49.594;11.022;2022-10-16T01:49:01;15.60;1.00
9762;DHT22;4920;49.594;11.022;2022-10-16T01:51:30;15.60;1.00
9762;DHT22;4920;49.594;11.022;2022-10-16T01:54:00;15.60;1.00
9762;DHT22;4920;49.594;11.022;2022-10-16T01:56:30;15.50;1.00
9762;DHT22;4920;49.594;11.022;2022-10-16T01:59:04;15.50;1.00
9762;DHT22;4920;49.594;11.022;2022-10-16T02:01:35;15.50;1.00
9762;DHT22;4920;49.594;11.022;2022-10-16T02:04:10;15.50;1.00
9762;DHT22;4920;49.594;11.022;2022-10-16T02:06:41;15.50;1.00
9762;DHT22;4920;49.594;11.022;2022-10-16T02:09:10;15.50;1.00
9762;DHT22;4920;49.594;11.022;2022-10-16T02:11:38;15.60;1.00
9762;DHT22;4920;49.594;11.022;2022-10-16T02:14:09;15.60;1.00
9762;DHT22;4920;49.594;11.022;2022-10-16T02:16:39;15.60;1.00
9762;DHT22;4920;49.594;11.022;2022-10-16T02:19:12;15.60;1.00
9762;DHT22;4920;49.594;11.022;2022-10-16T02:21:46;15.70;1.00
9762;DHT22;4920;49.594;11.022;2022-10-16T02:24:19;15.70;1.00
9762;DHT22;4920;49.594;11.022;2022-10-16T02:26:55;15.70;1.00
9762;DHT22;4920;49.594;11.022;2022-10-16T02:29:28;15.70;1.00
9762;DHT22;4920;49.594;11.022;2022-10-16T02:31:59;15.70;1.00
9762;DHT22;4920;49.594;11.022;2022-10-16T02:34:31;15.70;1.00
9762;DHT22;4920;49.594;11.022;2022-10-16T02:37:03;15.60;1.00
9762;DHT22;4920;49.594;11.022;2022-10-16T02:39:33;15.60;1.00
9762;DHT22;4920;49.594;11.022;2022-10-16T02:42:02;15.60;1.00
9762;DHT22;4920;49.594;11.022;2022-10-16T02:44:32;15.60;1.00
9762;DHT22;4920;49.594;11.022;2022-10-16T02:47:00;15.50;1.00
9762;DHT22;4920;49.594;11.022;2022-10-16T02:49:29;15.50;1.00
9762;DHT22;4920;49.594;11.022;2022-10-16T02:51:58;15.50;1.00
9762;DHT22;4920;49.594;11.022;2022-10-16T02:54:27;15.50;1.00
9762;DHT22;4920;49.594;11.022;2022-10-16T02:56:55;15.50;1.00
9762;DHT22;4920;49.594;11.022;2022-10-16T02:59:24;15.50;1.00
9762;DHT22;4920;49.594;11.022;2022-10-16T03:01:54;15.50;1.00
9762;DHT22;4920;49.594;11.022;2022-10-16T03:04:23;15.60;1.00
9762;DHT22;4920;49.594;11.022;2022-10-16T03:06:51;15.50;1.00
9762;DHT22;4920;49.594;11.022;2022-10-16T03:09:20;15.50;1.00
9762;DHT22;4920;49.594;11.022;2022-10-16T03:11:49;15.50;1.00
9762;DHT22;4920;49.594;11.022;2022-10-16T03:14:17;15.40;1.00
9762;DHT22;4920;49.594;11.022;2022-10-16T03:16:46;15.40;1.00
9762;DHT22;4920;49.594;11.022;2022-10-16T03:19:18;15.40;1.00
9762;DHT22;4920;49.594;11.022;2022-10-16T03:21:46;15.40;1.00
9762;DHT22;4920;49.594;11.022;2022-10-16T03:24:15;15.40;1.00
9762;DHT22;4920;49.594;11.022;2022-10-16T03:26:44;15.30;1.00
9762;DHT22;4920;49.594;11.022;2022-10-16T03:29:13;15.30;1.00
9762;DHT22;4920;49.594;11.022;2022-10-16T03:31:42;15.30;1.00
9762;DHT22;4920;49.594;11.022;2022-10-16T03:34:10;15.30;1.00
9762;DHT22;4920;49.594;11.022;2022-10-16T03:36:41;15.30;1.00
9762;DHT22;4920;49.594;11.022;2022-10-16T03:39:09;15.30;1.00
9762;DHT22;4920;49.594;11.022;2022-10-16T03:41:38;15.20;1.00
9762;DHT22;4920;49.594;11.022;2022-10-16T03:44:07;15.30;1.00
9762;DHT22;4920;49.594;11.022;2022-10-16T03:46:36;15.20;1.00
9762;DHT22;4920;49.594;11.022;2022-10-16T03:49:04;15.20;1.00
9762;DHT22;4920;49.594;11.022;2022-10-16T03:51:36;15.20;1.00
9762;DHT22;4920;49.594;11.022;2022-10-16T03:54:06;15.30;1.00
9762;DHT22;4920;49.594;11.022;2022-10-16T03:56:35;15.30;1.00
9762;DHT22;4920;49.594;11.022;2022-10-16T03:59:03;15.30;1.00
9762;DHT22;4920;49.594;11.022;2022-10-16T04:01:32;15.40;1.00
9762;DHT22;4920;49.594;11.022;2022-10-16T04:04:01;15.30;1.00
9762;DHT22;4920;49.594;11.022;2022-10-16T04:06:30;15.30;1.00
9762;DHT22;4920;49.594;11.022;2022-10-16T04:08:58;15.30;1.00
9762;DHT22;4920;49.594;11.022;2022-10-16T04:11:28;15.40;1.00
9762;DHT22;4920;49.594;11.022;2022-10-16T04:13:57;15.40;1.00
9762;DHT22;4920;49.594;11.022;2022-10-16T04:16:26;15.40;1.00
9762;DHT22;4920;49.594;11.022;2022-10-16T04:18:55;15.40;1.00
9762;DHT22;4920;49.594;11.022;2022-10-16T04:21:23;15.40;1.00
9762;DHT22;4920;49.594;11.022;2022-10-16T04:23:52;15.40;1.00
9762;DHT22;4920;49.594;11.022;2022-10-16T04:26:21;15.40;1.00
9762;DHT22;4920;49.594;11.022;2022-10-16T04:28:51;15.40;1.00
9762;DHT22;4920;49.594;11.022;2022-10-16T04:31:21;15.40;1.00
9762;DHT22;4920;49.594;11.022;2022-10-16T04:33:49;15.50;1.00
9762;DHT22;4920;49.594;11.022;2022-10-16T04:36:18;15.50;1.00
9762;DHT22;4920;49.594;11.022;2022-10-16T04:38:51;15.40;1.00
9762;DHT22;4920;49.594;11.022;2022-10-16T04:41:20;15.40;1.00
9762;DHT22;4920;49.594;11.022;2022-10-16T04:43:49;15.40;1.00
9762;DHT22;4920;49.594;11.022;2022-10-16T04:46:19;15.40;1.00
9762;DHT22;4920;49.594;11.022;2022-10-16T04:48:47;15.40;1.00
9762;DHT22;4920;49.594;11.022;2022-10-16T04:51:16;15.40;1.00
9762;DHT22;4920;49.594;11.022;2022-10-16T04:53:46;15.40;1.00
9762;DHT22;4920;49.594;11.022;2022-10-16T04:56:14;15.40;1.00
9762;DHT22;4920;49.594;11.022;2022-10-16T04:58:43;15.40;1.00
9762;DHT22;4920;49.594;11.022;2022-10-16T05:01:12;15.40;1.00
9762;DHT22;4920;49.594;11.022;2022-10-16T05:03:42;15.40;1.00
9762;DHT22;4920;49.594;11.022;2022-10-16T05:06:11;15.30;1.00
9762;DHT22;4920;49.594;11.022;2022-10-16T05:08:39;15.30;1.00
9762;DHT22;4920;49.594;11.022;2022-10-16T05:11:08;15.30;1.00
9762;DHT22;4920;49.594;11.022;2022-10-16T05:13:36;15.30;1.00
9762;DHT22;4920;49.594;11.022;2022-10-16T05:16:06;15.20;1.00
9762;DHT22;4920;49.594;11.022;2022-10-16T05:18:35;15.20;1.00
9762;DHT22;4920;49.594;11.022;2022-10-16T05:21:05;15.10;1.00
9762;DHT22;4920;49.594;11.022;2022-10-16T05:23:34;15.10;1.00
9762;DHT22;4920;49.594;11.022;2022-10-16T05:26:02;15.10;6.30
9762;DHT22;4920;49.594;11.022;2022-10-16T05:28:32;15.10;9.20
9762;DHT22;4920;49.594;11.022;2022-10-16T05:31:04;15.00;13.80
9762;DHT22;4920;49.594;11.022;2022-10-16T05:33:33;15.00;14.60
9762;DHT22;4920;49.594;11.022;2022-10-16T05:36:02;15.00;17.10
9762;DHT22;4920;49.594;11.022;2022-10-16T05:38:32;15.00;26.80
9762;DHT22;4920;49.594;11.022;2022-10-16T05:41:02;14.90;30.60
9762;DHT22;4920;49.594;11.022;2022-10-16T05:43:32;14.90;39.20
9762;DHT22;4920;49.594;11.022;2022-10-16T05:46:02;15.00;35.90
9762;DHT22;4920;49.594;11.022;2022-10-16T05:48:32;15.00;35.30
9762;DHT22;4920;49.594;11.022;2022-10-16T05:51:02;15.00;32.70
9762;DHT22;4920;49.594;11.022;2022-10-16T05:53:34;15.00;25.50
9762;DHT22;4920;49.594;11.022;2022-10-16T05:56:04;15.10;23.40
9762;DHT22;4920;49.594;11.022;2022-10-16T05:58:36;15.10;20.80
9762;DHT22;4920;49.594;11.022;2022-10-16T06:01:10;15.10;19.90
9762;DHT22;4920;49.594;11.022;2022-10-16T06:03:39;15.10;15.80
9762;DHT22;4920;49.594;11.022;2022-10-16T06:06:09;15.10;16.60
9762;DHT22;4920;49.594;11.022;2022-10-16T06:08:41;15.10;18.40
9762;DHT22;4920;49.594;11.022;2022-10-16T06:11:12;15.20;13.80
9762;DHT22;4920;49.594;11.022;2022-10-16T06:13:41;15.20;11.80
9762;DHT22;4920;49.594;11.022;2022-10-16T06:16:10;15.30;10.50
9762;DHT22;4920;49.594;11.022;2022-10-16T06:18:39;15.30;10.00
9762;DHT22;4920;49.594;11.022;2022-10-16T06:21:09;15.30;8.90
9762;DHT22;4920;49.594;11.022;2022-10-16T06:23:39;15.40;6.50
9762;DHT22;4920;49.594;11.022;2022-10-16T06:26:10;15.40;2.60
9762;DHT22;4920;49.594;11.022;2022-10-16T06:28:39;15.40;1.00
9762;DHT22;4920;49.594;11.022;2022-10-16T06:31:09;15.40;1.00
9762;DHT22;4920;49.594;11.022;2022-10-16T06:33:38;15.40;1.00
9762;DHT22;4920;49.594;11.022;2022-10-16T06:36:09;15.40;1.00
9762;DHT22;4920;49.594;11.022;2022-10-16T06:38:39;15.40;1.00
9762;DHT22;4920;49.594;11.022;2022-10-16T06:41:11;15.50;1.00
9762;DHT22;4920;49.594;11.022;2022-10-16T06:43:40;15.50;1.00
9762;DHT22;4920;49.594;11.022;2022-10-16T06:46:11;15.50;1.00
9762;DHT22;4920;49.594;11.022;2022-10-16T06:48:40;15.50;1.00
9762;DHT22;4920;49.594;11.022;2022-10-16T06:51:11;15.50;1.00
9762;DHT22;4920;49.594;11.022;2022-10-16T06:53:43;15.60;1.00
9762;DHT22;4920;49.594;11.022;2022-10-16T06:56:30;15.60;1.00
9762;DHT22;4920;49.594;11.022;2022-10-16T06:58:59;15.60;1.00
9762;DHT22;4920;49.594;11.022;2022-10-16T07:01:29;15.60;1.00
9762;DHT22;4920;49.594;11.022;2022-10-16T07:03:58;15.70;1.00
9762;DHT22;4920;49.594;11.022;2022-10-16T07:06:29;15.60;1.00
9762;DHT22;4920;49.594;11.022;2022-10-16T07:09:02;15.70;1.00
9762;DHT22;4920;49.594;11.022;2022-10-16T07:11:31;15.70;1.00
9762;DHT22;4920;49.594;11.022;2022-10-16T07:13:59;15.70;1.00
9762;DHT22;4920;49.594;11.022;2022-10-16T07:16:29;15.70;1.00
9762;DHT22;4920;49.594;11.022;2022-10-16T07:19:00;15.80;1.00
9762;DHT22;4920;49.594;11.022;2022-10-16T07:21:30;15.80;1.00
9762;DHT22;4920;49.594;11.022;2022-10-16T07:24:05;15.90;1.00
9762;DHT22;4920;49.594;11.022;2022-10-16T07:26:36;15.90;1.00
9762;DHT22;4920;49.594;11.022;2022-10-16T07:29:07;16.00;1.00
9762;DHT22;4920;49.594;11.022;2022-10-16T07:31:40;16.00;1.00
9762;DHT22;4920;49.594;11.022;2022-10-16T07:34:10;16.10;1.00
9762;DHT22;4920;49.594;11.022;2022-10-16T07:36:38;16.10;1.00
9762;DHT22;4920;49.594;11.022;2022-10-16T07:39:10;16.20;1.00
9762;DHT22;4920;49.594;11.022;2022-10-16T07:41:38;16.30;1.00
9762;DHT22;4920;49.594;11.022;2022-10-16T07:44:07;16.40;1.00
9762;DHT22;4920;49.594;11.022;2022-10-16T07:46:36;16.50;1.00
9762;DHT22;4920;49.594;11.022;2022-10-16T07:49:04;16.60;1.00
9762;DHT22;4920;49.594;11.022;2022-10-16T07:51:33;16.70;1.00
9762;DHT22;4920;49.594;11.022;2022-10-16T07:54:02;16.80;1.00
9762;DHT22;4920;49.594;11.022;2022-10-16T07:56:32;17.00;1.00
9762;DHT22;4920;49.594;11.022;2022-10-16T07:59:04;17.10;99.90
9762;DHT22;4920;49.594;11.022;2022-10-16T08:01:33;17.30;99.90
9762;DHT22;4920;49.594;11.022;2022-10-16T08:04:02;17.40;99.90
9762;DHT22;4920;49.594;11.022;2022-10-16T08:06:35;17.60;99.90
9762;DHT22;4920;49.594;11.022;2022-10-16T08:09:05;17.80;1.00
9762;DHT22;4920;49.594;11.022;2022-10-16T08:11:36;18.00;99.90
9762;DHT22;4920;49.594;11.022;2022-10-16T08:14:05;18.10;56.70
9762;DHT22;4920;49.594;11.022;2022-10-16T08:16:34;18.10;4.10
9762;DHT22;4920;49.594;11.022;2022-10-16T08:19:03;18.10;1.00
9762;DHT22;4920;49.594;11.022;2022-10-16T08:21:31;18.10;1.00
9762;DHT22;4920;49.594;11.022;2022-10-16T08:24:00;18.00;1.00
9762;DHT22;4920;49.594;11.022;2022-10-16T08:26:29;18.00;1.00
9762;DHT22;4920;49.594;11.022;2022-10-16T08:28:59;18.00;1.00
9762;DHT22;4920;49.594;11.022;2022-10-16T08:31:28;18.00;99.90
9762;DHT22;4920;49.594;11.022;2022-10-16T08:33:56;18.10;1.00
9762;DHT22;4920;49.594;11.022;2022-10-16T08:36:25;18.20;1.00
9762;DHT22;4920;49.594;11.022;2022-10-16T08:38:54;18.40;1.00
9762;DHT22;4920;49.594;11.022;2022-10-16T08:45:11;18.90;99.90
9762;DHT22;4920;49.594;11.022;2022-10-16T08:47:49;19.20;97.40
9762;DHT22;4920;49.594;11.022;2022-10-16T08:50:22;19.40;99.90
9762;DHT22;4920;49.594;11.022;2022-10-16T08:52:52;19.60;1.00
9762;DHT22;4920;49.594;11.022;2022-10-16T08:55:31;19.80;99.90
9762;DHT22;4920;49.594;11.022;2022-10-16T08:58:01;20.00;1.00
9762;DHT22;4920;49.594;11.022;2022-10-16T09:00:31;20.10;1.00
9762;DHT22;4920;49.594;11.022;2022-10-16T09:03:07;20.30;99.90
9762;DHT22;4920;49.594;11.022;2022-10-16T09:05:57;20.40;42.40
9762;DHT22;4920;49.594;11.022;2022-10-16T09:08:37;20.50;1.00
9762;DHT22;4920;49.594;11.022;2022-10-16T09:11:12;20.60;99.90
9762;DHT22;4920;49.594;11.022;2022-10-16T09:13:48;20.70;99.90
9762;DHT22;4920;49.594;11.022;2022-10-16T09:16:24;20.80;99.90
9762;DHT22;4920;49.594;11.022;2022-10-16T09:19:02;20.90;99.90
9762;DHT22;4920;49.594;11.022;2022-10-16T09:21:36;20.90;1.00
9762;DHT22;4920;49.594;11.022;2022-10-16T09:24:11;20.90;1.00
9762;DHT22;4920;49.594;11.022;2022-10-16T09:26:40;20.90;1.00
9762;DHT22;4920;49.594;11.022;2022-10-16T09:29:11;21.00;1.00
9762;DHT22;4920;49.594;11.022;2022-10-16T09:31:42;21.00;1.00
9762;DHT22;4920;49.594;11.022;2022-10-16T09:34:20;21.00;1.00
9762;DHT22;4920;49.594;11.022;2022-10-16T09:36:54;21.00;99.90
9762;DHT22;4920;49.594;11.022;2022-10-16T09:39:24;20.90;1.00
9762;DHT22;4920;49.594;11.022;2022-10-16T09:41:53;20.90;1.00
9762;DHT22;4920;49.594;11.022;2022-10-16T09:44:25;20.80;1.00
9762;DHT22;4920;49.594;11.022;2022-10-16T09:47:02;20.80;1.00
9762;DHT22;4920;49.594;11.022;2022-10-16T09:49:33;20.70;1.00
9762;DHT22;4920;49.594;11.022;2022-10-16T09:52:06;20.50;1.00
9762;DHT22;4920;49.594;11.022;2022-10-16T09:54:49;20.40;1.00
9762;DHT22;4920;49.594;11.022;2022-10-16T09:57:18;20.40;1.00
9762;DHT22;4920;49.594;11.022;2022-10-16T09:59:47;20.30;1.00
9762;DHT22;4920;49.594;11.022;2022-10-16T10:02:22;20.40;1.00
9762;DHT22;4920;49.594;11.022;2022-10-16T10:04:53;20.50;1.00
9762;DHT22;4920;49.594;11.022;2022-10-16T10:07:25;20.80;1.00
9762;DHT22;4920;49.594;11.022;2022-10-16T10:09:56;20.90;99.90
9762;DHT22;4920;49.594;11.022;2022-10-16T10:12:27;21.10;99.90
9762;DHT22;4920;49.594;11.022;2022-10-16T10:15:03;21.30;99.90
9762;DHT22;4920;49.594;11.022;2022-10-16T10:17:44;21.50;99.90
9762;DHT22;4920;49.594;11.022;2022-10-16T10:20:22;21.60;99.90
9762;DHT22;4920;49.594;11.022;2022-10-16T10:22:51;21.80;99.90
9762;DHT22;4920;49.594;11.022;2022-10-16T10:25:38;21.90;99.90
9762;DHT22;4920;49.594;11.022;2022-10-16T10:28:21;21.90;52.50
9762;DHT22;4920;49.594;11.022;2022-10-16T10:31:01;22.00;27.50
9762;DHT22;4920;49.594;11.022;2022-10-16T10:33:41;22.10;1.00
9762;DHT22;4920;49.594;11.022;2022-10-16T10:36:25;22.20;1.00
9762;DHT22;4920;49.594;11.022;2022-10-16T10:39:00;22.30;1.00
9762;DHT22;4920;49.594;11.022;2022-10-16T10:41:58;22.50;1.00
9762;DHT22;4920;49.594;11.022;2022-10-16T10:44:53;22.50;1.00
9762;DHT22;4920;49.594;11.022;2022-10-16T10:47:32;22.50;1.00
9762;DHT22;4920;49.594;11.022;2022-10-16T10:50:17;22.50;1.00
9762;DHT22;4920;49.594;11.022;2022-10-16T10:52:56;22.40;1.00
9762;DHT22;4920;49.594;11.022;2022-10-16T10:55:31;22.40;1.00
9762;DHT22;4920;49.594;11.022;2022-10-16T11:01:06;22.50;1.00
9762;DHT22;4920;49.594;11.022;2022-10-16T11:04:04;22.80;1.00
9762;DHT22;4920;49.594;11.022;2022-10-16T11:06:43;23.00;1.00
9762;DHT22;4920;49.594;11.022;2022-10-16T11:09:16;23.20;1.00
9762;DHT22;4920;49.594;11.022;2022-10-16T11:11:49;23.40;1.00
9762;DHT22;4920;49.594;11.022;2022-10-16T11:14:23;23.50;1.00
9762;DHT22;4920;49.594;11.022;2022-10-16T11:16:58;23.60;1.00
9762;DHT22;4920;49.594;11.022;2022-10-16T11:19:33;23.70;1.00
9762;DHT22;4920;49.594;11.022;2022-10-16T11:22:13;23.50;1.00
9762;DHT22;4920;49.594;11.022;2022-10-16T11:24:47;23.20;1.00
9762;DHT22;4920;49.594;11.022;2022-10-16T11:27:21;22.90;1.00
9762;DHT22;4920;49.594;11.022;2022-10-16T11:29:56;22.60;1.00
9762;DHT22;4920;49.594;11.022;2022-10-16T11:32:30;22.20;1.00
9762;DHT22;4920;49.594;11.022;2022-10-16T11:35:08;21.90;1.00
9762;DHT22;4920;49.594;11.022;2022-10-16T11:37:43;21.70;1.00
9762;DHT22;4920;49.594;11.022;2022-10-16T11:40:21;21.60;1.00
9762;DHT22;4920;49.594;11.022;2022-10-16T11:42:55;21.60;1.00
9762;DHT22;4920;49.594;11.022;2022-10-16T11:45:33;21.70;1.00
9762;DHT22;4920;49.594;11.022;2022-10-16T11:48:12;22.00;1.00
9762;DHT22;4920;49.594;11.022;2022-10-16T11:50:53;22.20;1.00
9762;DHT22;4920;49.594;11.022;2022-10-16T11:53:38;22.50;1.00
9762;DHT22;4920;49.594;11.022;2022-10-16T11:56:12;22.80;1.00
9762;DHT22;4920;49.594;11.022;2022-10-16T11:58:50;23.30;1.00
9762;DHT22;4920;49.594;11.022;2022-10-16T12:01:27;23.90;1.00
9762;DHT22;4920;49.594;11.022;2022-10-16T12:04:05;24.60;99.90
9762;DHT22;4920;49.594;11.022;2022-10-16T12:06:39;24.80;99.90
9762;DHT22;4920;49.594;11.022;2022-10-16T12:09:21;25.10;99.90
9762;DHT22;4920;49.594;11.022;2022-10-16T12:11:53;25.30;99.90
9762;DHT22;4920;49.594;11.022;2022-10-16T12:14:37;25.40;99.90
9762;DHT22;4920;49.594;11.022;2022-10-16T12:17:36;25.80;99.90
9762;DHT22;4920;49.594;11.022;2022-10-16T12:20:26;26.20;99.90
9762;DHT22;4920;49.594;11.022;2022-10-16T12:22:59;26.30;99.90
9762;DHT22;4920;49.594;11.022;2022-10-16T12:25:31;26.10;99.90
9762;DHT22;4920;49.594;11.022;2022-10-16T12:28:04;26.10;99.90
9762;DHT22;4920;49.594;11.022;2022-10-16T12:30:35;26.10;99.90
9762;DHT22;4920;49.594;11.022;2022-10-16T12:33:05;26.10;99.90
9762;DHT22;4920;49.594;11.022;2022-10-16T12:35:42;26.10;99.90
9762;DHT22;4920;49.594;11.022;2022-10-16T12:38:19;26.00;99.90
9762;DHT22;4920;49.594;11.022;2022-10-16T12:41:25;25.90;99.90
9762;DHT22;4920;49.594;11.022;2022-10-16T12:44:23;25.90;99.90
9762;DHT22;4920;49.594;11.022;2022-10-16T12:46:51;25.70;99.90
9762;DHT22;4920;49.594;11.022;2022-10-16T12:49:28;25.60;99.90
9762;DHT22;4920;49.594;11.022;2022-10-16T12:51:58;25.60;99.90
9762;DHT22;4920;49.594;11.022;2022-10-16T12:54:28;25.50;99.90
9762;DHT22;4920;49.594;11.022;2022-10-16T12:57:06;25.50;99.90
9762;DHT22;4920;49.594;11.022;2022-10-16T12:59:42;25.50;99.90
9762;DHT22;4920;49.594;11.022;2022-10-16T13:02:47;25.50;99.90
9762;DHT22;4920;49.594;11.022;2022-10-16T13:05:29;25.30;99.90
9762;DHT22;4920;49.594;11.022;2022-10-16T13:08:11;25.10;99.90
9762;DHT22;4920;49.594;11.022;2022-10-16T13:10:51;24.80;99.90
9762;DHT22;4920;49.594;11.022;2022-10-16T13:13:36;24.50;99.90
9762;DHT22;4920;49.594;11.022;2022-10-16T13:16:16;24.20;99.90
9762;DHT22;4920;49.594;11.022;2022-10-16T13:18:56;24.00;99.90
9762;DHT22;4920;49.594;11.022;2022-10-16T13:21:38;24.10;99.90
9762;DHT22;4920;49.594;11.022;2022-10-16T13:24:23;24.30;99.90
9762;DHT22;4920;49.594;11.022;2022-10-16T13:26:59;24.70;99.90
9762;DHT22;4920;49.594;11.022;2022-10-16T13:29:32;25.10;99.90
9762;DHT22;4920;49.594;11.022;2022-10-16T13:32:06;25.40;99.90
9762;DHT22;4920;49.594;11.022;2022-10-16T13:34:43;25.60;99.90
9762;DHT22;4920;49.594;11.022;2022-10-16T13:37:18;25.80;99.90
9762;DHT22;4920;49.594;11.022;2022-10-16T13:39:47;26.00;99.90
9762;DHT22;4920;49.594;11.022;2022-10-16T13:42:22;26.00;99.90
9762;DHT22;4920;49.594;11.022;2022-10-16T13:44:56;26.00;99.90
9762;DHT22;4920;49.594;11.022;2022-10-16T13:47:25;25.80;99.90
9762;DHT22;4920;49.594;11.022;2022-10-16T13:50:04;25.70;99.90
9762;DHT22;4920;49.594;11.022;2022-10-16T13:52:33;25.60;99.90
9762;DHT22;4920;49.594;11.022;2022-10-16T13:55:01;25.60;99.90
9762;DHT22;4920;49.594;11.022;2022-10-16T13:57:29;25.50;99.90
9762;DHT22;4920;49.594;11.022;2022-10-16T13:59:59;25.30;99.90
9762;DHT22;4920;49.594;11.022;2022-10-16T14:02:33;25.20;99.90
9762;DHT22;4920;49.594;11.022;2022-10-16T14:05:03;25.20;99.90
9762;DHT22;4920;49.594;11.022;2022-10-16T14:07:33;25.20;99.90
9762;DHT22;4920;49.594;11.022;2022-10-16T14:10:04;25.40;99.90
9762;DHT22;4920;49.594;11.022;2022-10-16T14:12:33;25.50;99.90
9762;DHT22;4920;49.594;11.022;2022-10-16T14:15:04;25.50;99.90
9762;DHT22;4920;49.594;11.022;2022-10-16T14:17:35;25.70;99.90
9762;DHT22;4920;49.594;11.022;2022-10-16T14:20:06;25.80;99.90
9762;DHT22;4920;49.594;11.022;2022-10-16T14:22:41;25.80;99.90
9762;DHT22;4920;49.594;11.022;2022-10-16T14:25:23;25.70;99.90
9762;DHT22;4920;49.594;11.022;2022-10-16T14:27:59;25.60;99.90
9762;DHT22;4920;49.594;11.022;2022-10-16T14:30:31;25.50;99.90
9762;DHT22;4920;49.594;11.022;2022-10-16T14:33:00;25.40;99.90
9762;DHT22;4920;49.594;11.022;2022-10-16T14:35:31;25.20;99.90
9762;DHT22;4920;49.594;11.022;2022-10-16T14:38:01;25.00;99.90
9762;DHT22;4920;49.594;11.022;2022-10-16T14:40:31;24.80;99.90
9762;DHT22;4920;49.594;11.022;2022-10-16T14:43:00;24.60;99.90
9762;DHT22;4920;49.594;11.022;2022-10-16T14:45:33;24.40;99.90
9762;DHT22;4920;49.594;11.022;2022-10-16T14:48:05;24.20;99.90
9762;DHT22;4920;49.594;11.022;2022-10-16T14:50:34;24.00;99.90
9762;DHT22;4920;49.594;11.022;2022-10-16T14:53:08;23.90;99.90
9762;DHT22;4920;49.594;11.022;2022-10-16T14:55:39;23.80;99.90
9762;DHT22;4920;49.594;11.022;2022-10-16T14:58:10;23.70;99.90
9762;DHT22;4920;49.594;11.022;2022-10-16T15:00:41;23.70;99.90
9762;DHT22;4920;49.594;11.022;2022-10-16T15:03:09;23.60;99.90
9762;DHT22;4920;49.594;11.022;2022-10-16T15:05:38;23.50;99.90
9762;DHT22;4920;49.594;11.022;2022-10-16T15:08:06;23.40;99.90
9762;DHT22;4920;49.594;11.022;2022-10-16T15:10:39;23.30;99.90
9762;DHT22;4920;49.594;11.022;2022-10-16T15:13:11;23.20;99.90
9762;DHT22;4920;49.594;11.022;2022-10-16T15:15:43;23.10;99.90
9762;DHT22;4920;49.594;11.022;2022-10-16T15:18:12;23.00;99.90
9762;DHT22;4920;49.594;11.022;2022-10-16T15:20:41;22.90;99.90
9762;DHT22;4920;49.594;11.022;2022-10-16T15:23:13;22.80;99.90
9762;DHT22;4920;49.594;11.022;2022-10-16T15:25:43;22.60;99.90
9762;DHT22;4920;49.594;11.022;2022-10-16T15:28:13;22.50;1.00
9762;DHT22;4920;49.594;11.022;2022-10-16T15:30:44;22.40;1.00
9762;DHT22;4920;49.594;11.022;2022-10-16T15:33:14;22.30;1.00
9762;DHT22;4920;49.594;11.022;2022-10-16T15:35:46;22.10;1.00
9762;DHT22;4920;49.594;11.022;2022-10-16T15:38:15;22.10;1.00
9762;DHT22;4920;49.594;11.022;2022-10-16T15:40:45;21.90;1.00
9762;DHT22;4920;49.594;11.022;2022-10-16T15:43:13;21.90;1.00
9762;DHT22;4920;49.594;11.022;2022-10-16T15:45:43;21.80;1.00
9762;DHT22;4920;49.594;11.022;2022-10-16T15:48:12;21.60;1.00
9762;DHT22;4920;49.594;11.022;2022-10-16T15:50:41;21.60;5.00
9762;DHT22;4920;49.594;11.022;2022-10-16T15:53:10;21.50;99.90
9762;DHT22;4920;49.594;11.022;2022-10-16T15:55:38;21.40;99.90
9762;DHT22;4920;49.594;11.022;2022-10-16T15:58:06;21.30;99.90
9762;DHT22;4920;49.594;11.022;2022-10-16T16:00:34;21.20;99.90
9762;DHT22;4920;49.594;11.022;2022-10-16T16:03:04;21.10;1.00
9762;DHT22;4920;49.594;11.022;2022-10-16T16:05:32;21.00;1.00
9762;DHT22;4920;49.594;11.022;2022-10-16T16:08:02;20.90;1.00
9762;DHT22;4920;49.594;11.022;2022-10-16T16:10:30;20.80;94.50
9762;DHT22;4920;49.594;11.022;2022-10-16T16:12:58;20.70;99.90
9762;DHT22;4920;49.594;11.022;2022-10-16T16:15:26;20.60;99.90
9762;DHT22;4920;49.594;11.022;2022-10-16T16:17:55;20.50;1.00
9762;DHT22;4920;49.594;11.022;2022-10-16T16:20:24;20.40;99.90
9762;DHT22;4920;49.594;11.022;2022-10-16T16:22:53;20.30;1.00
9762;DHT22;4920;49.594;11.022;2022-10-16T16:25:21;20.20;1.00
9762;DHT22;4920;49.594;11.022;2022-10-16T16:27:49;20.10;99.90
9762;DHT22;4920;49.594;11.022;2022-10-16T16:30:17;20.00;1.00
9762;DHT22;4920;49.594;11.022;2022-10-16T16:32:53;19.90;1.00
9762;DHT22;4920;49.594;11.022;2022-10-16T16:35:21;19.80;1.00
9762;DHT22;4920;49.594;11.022;2022-10-16T16:37:50;19.80;1.00